createdAt,value
2022-08-12T00:03:29.195Z,13.59
2022-08-12T00:08:54.105Z,13.44
2022-08-12T00:14:15.200Z,13.43
2022-08-12T00:19:35.901Z,13.41
2022-08-12T00:24:56.491Z,13.40
2022-08-12T00:30:17.460Z,13.38
2022-08-12T00:35:38.529Z,13.25
2022-08-12T00:41:02.749Z,13.14
2022-08-12T00:46:23.624Z,13.06
2022-08-12T00:51:48.869Z,13.05
2022-08-12T00:56:54.070Z,13.09
2022-08-12T01:02:10.312Z,13.03
2022-08-12T01:07:33.007Z,12.93
2022-08-12T01:12:36.600Z,12.93
2022-08-12T01:17:42.057Z,12.88
2022-08-12T01:23:08.241Z,12.84
2022-08-12T01:28:15.191Z,12.93
2022-08-12T01:33:18.567Z,12.97
2022-08-12T01:38:21.616Z,12.86
2022-08-12T01:43:32.411Z,12.77
2022-08-12T01:49:00.520Z,12.80
2022-08-12T01:54:07.085Z,12.86
2022-08-12T01:59:29.351Z,12.87
2022-08-12T02:04:59.103Z,12.82
2022-08-12T02:10:49.342Z,13.07
2022-08-12T02:16:22.828Z,14.59
2022-08-12T02:21:25.094Z,16.97
2022-08-12T02:26:30.965Z,18.99
2022-08-12T02:31:33.448Z,20.78
2022-08-12T02:36:37.587Z,22.28
2022-08-12T02:41:42.675Z,23.08
2022-08-12T02:46:50.509Z,24.50
2022-08-12T02:51:53.924Z,25.61
2022-08-12T02:56:56.489Z,25.58
2022-08-12T03:02:05.423Z,23.12
2022-08-12T03:07:21.157Z,21.68
2022-08-12T03:12:25.219Z,19.97
2022-08-12T03:17:39.776Z,19.04
2022-08-12T03:22:43.388Z,19.32
2022-08-12T03:28:06.956Z,19.67
2022-08-12T03:33:11.918Z,20.04
2022-08-12T03:38:16.339Z,20.65
2022-08-12T03:43:40.284Z,20.23
2022-08-12T03:49:01.473Z,20.44
2022-08-12T03:54:22.462Z,20.13
2022-08-12T03:59:43.479Z,19.57
2022-08-12T04:04:46.740Z,19.44
2022-08-12T04:09:49.228Z,19.60
2022-08-12T04:14:52.132Z,19.30
2022-08-12T04:19:58.526Z,19.33
2022-08-12T04:25:02.508Z,19.33
2022-08-12T04:30:16.396Z,19.47
2022-08-12T04:35:31.044Z,19.72
2022-08-12T04:40:34.013Z,19.88
2022-08-12T04:45:37.926Z,20.08
2022-08-12T04:50:40.838Z,20.34
2022-08-12T04:55:45.870Z,20.49
2022-08-12T05:00:48.228Z,20.62
2022-08-12T05:05:50.752Z,20.88
2022-08-12T05:10:53.506Z,20.98
2022-08-12T05:16:03.990Z,20.98
2022-08-12T05:21:09.182Z,21.30
2022-08-12T05:26:11.574Z,21.51
2022-08-12T05:31:14.013Z,21.64
2022-08-12T05:36:36.689Z,21.61
2022-08-12T05:41:39.722Z,21.80
2022-08-12T05:46:42.056Z,21.90
2022-08-12T05:51:45.061Z,21.77
2022-08-12T05:56:48.367Z,21.78
2022-08-12T06:02:09.683Z,22.23
2022-08-12T06:07:59.880Z,22.42
2022-08-12T06:12:36.342Z,22.55
2022-08-12T06:17:38.795Z,22.89
2022-08-12T06:22:44.797Z,23.17
2022-08-12T06:28:06.336Z,23.19
2022-08-12T06:33:21.129Z,23.08
2022-08-12T06:38:25.815Z,23.44
2022-08-12T06:43:28.303Z,23.81
2022-08-12T06:48:57.283Z,23.93
2022-08-12T06:54:01.345Z,23.79
2022-08-12T06:59:04.148Z,23.77
2022-08-12T07:04:33.873Z,23.77
2022-08-12T07:10:06.818Z,23.87
2022-08-12T07:14:51.711Z,23.97
2022-08-12T07:19:58.028Z,24.25
2022-08-12T07:25:21.845Z,24.22
2022-08-12T07:30:24.471Z,24.61
2022-08-12T07:35:27.682Z,24.66
2022-08-12T07:40:30.341Z,24.61
2022-08-12T07:45:32.668Z,24.84
2022-08-12T07:50:35.143Z,25.14
2022-08-12T07:55:38.298Z,25.52
2022-08-12T08:00:40.670Z,25.69
2022-08-12T08:05:52.266Z,25.84
2022-08-12T08:11:17.037Z,25.16
2022-08-12T08:16:19.583Z,25.40
2022-08-12T08:21:22.074Z,25.73
2022-08-12T08:26:26.651Z,25.86
2022-08-12T08:31:28.912Z,25.75
2022-08-12T08:36:31.262Z,25.64
2022-08-12T08:42:15.405Z,25.53
2022-08-12T08:47:14.812Z,25.44
2022-08-12T08:52:38.842Z,25.61
2022-08-12T08:57:45.414Z,25.89
2022-08-12T09:02:49.503Z,25.78
2022-08-12T09:14:12.335Z,26.09
2022-08-12T09:18:57.086Z,26.14
2022-08-12T09:30:11.841Z,26.30
2022-08-12T09:34:50.872Z,26.67
2022-08-12T09:40:07.902Z,26.34
2022-08-12T09:46:06.280Z,26.86
2022-08-12T09:50:55.387Z,26.80
2022-08-12T09:56:06.703Z,26.86
2022-08-12T10:01:24.401Z,26.63
2022-08-12T10:06:32.292Z,26.74
2022-08-12T10:12:12.220Z,26.98
2022-08-12T10:17:15.546Z,26.88
2022-08-12T10:22:38.836Z,26.86
2022-08-12T10:28:05.289Z,26.93
2022-08-12T10:33:18.340Z,26.79
2022-08-12T10:38:36.413Z,26.97
2022-08-12T10:43:55.185Z,26.96
2022-08-12T10:49:05.311Z,27.34
2022-08-12T10:54:09.441Z,27.45
2022-08-12T10:59:16.108Z,27.74
2022-08-12T11:04:35.629Z,27.50
2022-08-12T11:10:00.478Z,27.66
2022-08-12T11:15:19.492Z,27.86
2022-08-12T11:20:30.936Z,28.00
2022-08-12T11:25:53.759Z,28.22
2022-08-12T11:30:56.201Z,28.17
2022-08-12T11:36:14.635Z,27.94
2022-08-12T11:41:17.958Z,27.83
2022-08-12T11:46:37.107Z,27.78
2022-08-12T11:51:39.930Z,27.88
2022-08-12T11:56:52.242Z,28.09
2022-08-12T12:02:05.581Z,27.37
2022-08-12T12:07:11.240Z,27.75
2022-08-12T12:12:14.976Z,27.91
2022-08-12T12:17:17.951Z,27.93
2022-08-12T12:22:23.046Z,28.04
2022-08-12T12:28:05.040Z,27.71
2022-08-12T12:32:53.481Z,27.83
2022-08-12T12:38:05.089Z,27.71
2022-08-12T12:43:14.695Z,27.78
2022-08-12T12:48:18.318Z,27.92
2022-08-12T12:54:09.031Z,28.09
2022-08-12T12:58:47.131Z,28.21
2022-08-12T13:03:55.381Z,27.89
2022-08-12T13:09:02.765Z,27.94
2022-08-12T13:14:12.976Z,27.82
2022-08-12T13:19:38.938Z,27.65
2022-08-12T13:24:46.330Z,27.55
2022-08-12T13:29:56.217Z,27.65
2022-08-12T13:35:04.665Z,27.54
2022-08-12T13:40:24.651Z,27.64
2022-08-12T13:45:28.994Z,27.37
2022-08-12T13:50:33.276Z,27.50
2022-08-12T13:55:36.360Z,27.18
2022-08-12T14:00:51.191Z,27.30
2022-08-12T14:05:55.784Z,27.23
2022-08-12T14:10:59.040Z,26.95
2022-08-12T14:16:02.405Z,27.00
2022-08-12T14:21:09.602Z,26.82
2022-08-12T14:26:15.086Z,26.71
2022-08-12T14:31:29.655Z,26.50
2022-08-12T14:36:34.488Z,26.40
2022-08-12T14:41:48.400Z,26.34
2022-08-12T14:46:59.520Z,26.30
2022-08-12T14:52:43.196Z,26.27
2022-08-12T14:57:35.320Z,26.26
2022-08-12T15:02:38.257Z,26.17
2022-08-12T15:07:50.330Z,26.18
2022-08-12T15:12:58.265Z,26.18
2022-08-12T15:18:02.303Z,26.03
2022-08-12T15:23:05.925Z,25.96
2022-08-12T15:28:22.457Z,25.94
2022-08-12T15:33:46.058Z,25.76
2022-08-12T15:38:50.282Z,25.61
2022-08-12T15:44:37.432Z,25.52
2022-08-12T15:49:19.445Z,25.46
2022-08-12T15:54:35.180Z,25.36
2022-08-12T16:00:00.860Z,25.27
2022-08-12T16:05:01.221Z,25.11
2022-08-12T16:10:08.288Z,24.93
2022-08-12T16:15:13.299Z,24.77
2022-08-12T16:20:27.988Z,24.60
2022-08-12T16:26:03.182Z,24.39
2022-08-12T16:31:00.024Z,24.21
2022-08-12T16:36:06.258Z,23.95
2022-08-12T16:41:13.665Z,23.75
2022-08-12T16:46:32.504Z,23.58
2022-08-12T16:51:40.187Z,23.45
2022-08-12T16:56:55.289Z,23.22
2022-08-12T17:02:00.774Z,22.98
2022-08-12T17:07:03.239Z,22.79
2022-08-12T17:12:05.910Z,22.60
2022-08-12T17:17:18.426Z,22.30
2022-08-12T17:22:31.396Z,22.08
2022-08-12T17:27:36.664Z,21.87
2022-08-12T17:32:40.770Z,21.64
2022-08-12T17:37:43.189Z,21.52
2022-08-12T17:42:48.125Z,21.42
2022-08-12T17:48:01.748Z,21.19
2022-08-12T17:53:10.699Z,20.95
2022-08-12T17:58:14.331Z,20.71
2022-08-12T18:04:05.804Z,20.53
2022-08-12T18:08:43.561Z,20.33
2022-08-12T18:13:57.732Z,20.13
2022-08-12T18:19:02.617Z,19.98
2022-08-12T18:24:22.005Z,19.86
2022-08-12T18:29:42.112Z,19.68
2022-08-12T18:34:48.146Z,19.60
2022-08-12T18:40:17.997Z,19.41
2022-08-12T18:45:21.969Z,19.28
2022-08-12T18:50:24.758Z,19.14
2022-08-12T18:55:27.301Z,18.91
2022-08-12T19:00:40.711Z,18.75
2022-08-12T19:05:53.254Z,18.69
2022-08-12T19:11:20.793Z,18.53
2022-08-12T19:16:23.718Z,18.44
2022-08-12T19:21:26.702Z,18.34
2022-08-12T19:26:29.165Z,18.30
2022-08-12T19:31:45.228Z,18.18
2022-08-12T19:37:04.360Z,18.09
2022-08-12T19:42:07.092Z,17.89
2022-08-12T19:47:12.057Z,17.89
2022-08-12T19:52:21.221Z,17.85
2022-08-12T19:57:24.028Z,17.78
2022-08-12T20:02:34.496Z,17.64
2022-08-12T20:07:43.057Z,17.54
2022-08-12T20:13:17.935Z,17.41
2022-08-12T20:18:44.346Z,17.43
2022-08-12T20:24:00.564Z,17.48
2022-08-12T20:29:04.918Z,17.39
2022-08-12T20:34:08.940Z,17.31
2022-08-12T20:39:34.381Z,17.16
2022-08-12T20:44:40.840Z,17.11
2022-08-12T20:49:43.899Z,17.07
2022-08-12T20:54:50.185Z,16.94
2022-08-12T20:59:52.791Z,16.88
2022-08-12T21:05:19.513Z,16.81
2022-08-12T21:10:26.549Z,16.79
2022-08-12T21:15:30.675Z,16.78
2022-08-12T21:20:55.516Z,16.75
2022-08-12T21:26:01.425Z,16.63
2022-08-12T21:32:34.275Z,16.54
2022-08-12T21:36:34.852Z,16.45
2022-08-12T21:41:42.821Z,16.36
2022-08-12T21:46:53.557Z,16.35
2022-08-12T21:51:56.609Z,16.33
2022-08-12T21:56:59.749Z,16.17
2022-08-12T22:02:02.171Z,16.06
2022-08-12T22:07:06.247Z,15.93
2022-08-12T22:12:28.081Z,15.89
2022-08-12T22:17:50.302Z,15.84
2022-08-12T22:23:00.335Z,15.82
2022-08-12T22:28:24.590Z,15.77
2022-08-12T22:33:27.233Z,15.67
2022-08-12T22:38:30.045Z,15.56
2022-08-12T22:43:59.683Z,15.50
2022-08-12T22:49:03.721Z,15.44
2022-08-12T22:54:10.214Z,15.41
2022-08-12T22:59:49.634Z,15.39
2022-08-12T23:04:55.336Z,15.15
2022-08-12T23:09:58.333Z,15.19
2022-08-12T23:15:05.939Z,15.18
2022-08-12T23:20:10.975Z,15.14
2022-08-12T23:25:18.790Z,15.11
2022-08-12T23:30:24.941Z,15.17
2022-08-12T23:35:45.554Z,15.14
2022-08-12T23:40:57.160Z,15.09
2022-08-12T23:46:03.568Z,15.14
2022-08-12T23:51:23.429Z,15.09
2022-08-12T23:56:26.796Z,15.05
